sensor_id;sensor_type;location;lat;lon;timestamp;P1;durP1;ratioP1;P2;durP2;ratioP2
65971;SDS011;52726;48.852;9.152;2023-08-06T00:01:24;7.10;;;3.90;;
65971;SDS011;52726;48.852;9.152;2023-08-06T00:03:50;4.15;;;3.50;;
65971;SDS011;52726;48.852;9.152;2023-08-06T00:06:15;4.72;;;3.75;;
65971;SDS011;52726;48.852;9.152;2023-08-06T00:08:41;7.25;;;3.80;;
65971;SDS011;52726;48.852;9.152;2023-08-06T00:11:06;4.47;;;3.38;;
65971;SDS011;52726;48.852;9.152;2023-08-06T00:13:32;7.07;;;3.65;;
65971;SDS011;52726;48.852;9.152;2023-08-06T00:16:07;4.10;;;3.45;;
65971;SDS011;52726;48.852;9.152;2023-08-06T00:18:34;6.80;;;3.35;;
65971;SDS011;52726;48.852;9.152;2023-08-06T00:20:59;6.00;;;3.58;;
65971;SDS011;52726;48.852;9.152;2023-08-06T00:23:24;9.88;;;3.38;;
65971;SDS011;52726;48.852;9.152;2023-08-06T00:25:50;4.53;;;3.40;;
65971;SDS011;52726;48.852;9.152;2023-08-06T00:28:15;5.03;;;3.80;;
65971;SDS011;52726;48.852;9.152;2023-08-06T00:30:40;8.50;;;3.15;;
65971;SDS011;52726;48.852;9.152;2023-08-06T00:33:05;9.48;;;3.90;;
65971;SDS011;52726;48.852;9.152;2023-08-06T00:35:31;4.70;;;2.88;;
65971;SDS011;52726;48.852;9.152;2023-08-06T00:37:56;5.38;;;3.08;;
65971;SDS011;52726;48.852;9.152;2023-08-06T00:40:21;3.55;;;2.53;;
65971;SDS011;52726;48.852;9.152;2023-08-06T00:42:47;10.30;;;2.53;;
65971;SDS011;52726;48.852;9.152;2023-08-06T00:45:13;3.75;;;2.55;;
65971;SDS011;52726;48.852;9.152;2023-08-06T00:47:38;3.35;;;2.50;;
65971;SDS011;52726;48.852;9.152;2023-08-06T00:50:05;2.88;;;2.42;;
65971;SDS011;52726;48.852;9.152;2023-08-06T00:52:32;3.70;;;2.88;;
65971;SDS011;52726;48.852;9.152;2023-08-06T00:54:57;6.43;;;2.88;;
65971;SDS011;52726;48.852;9.152;2023-08-06T00:57:23;3.20;;;2.63;;
65971;SDS011;52726;48.852;9.152;2023-08-06T00:59:50;4.07;;;2.40;;
65971;SDS011;52726;48.852;9.152;2023-08-06T01:02:16;2.70;;;2.45;;
65971;SDS011;52726;48.852;9.152;2023-08-06T01:04:41;5.90;;;2.67;;
65971;SDS011;52726;48.852;9.152;2023-08-06T01:07:21;3.80;;;2.53;;
65971;SDS011;52726;48.852;9.152;2023-08-06T01:09:57;6.15;;;2.80;;
65971;SDS011;52726;48.852;9.152;2023-08-06T01:12:35;5.15;;;2.55;;
65971;SDS011;52726;48.852;9.152;2023-08-06T01:17:45;2.75;;;2.22;;
65971;SDS011;52726;48.852;9.152;2023-08-06T01:20:10;2.97;;;2.42;;
65971;SDS011;52726;48.852;9.152;2023-08-06T01:22:36;3.47;;;2.17;;
65971;SDS011;52726;48.852;9.152;2023-08-06T01:25:01;4.45;;;2.40;;
65971;SDS011;52726;48.852;9.152;2023-08-06T01:27:32;2.63;;;2.30;;
65971;SDS011;52726;48.852;9.152;2023-08-06T01:30:06;4.03;;;2.50;;
65971;SDS011;52726;48.852;9.152;2023-08-06T01:32:39;4.55;;;2.63;;
65971;SDS011;52726;48.852;9.152;2023-08-06T01:35:09;5.55;;;2.55;;
65971;SDS011;52726;48.852;9.152;2023-08-06T01:37:36;3.10;;;2.10;;
65971;SDS011;52726;48.852;9.152;2023-08-06T01:40:05;2.85;;;2.22;;
65971;SDS011;52726;48.852;9.152;2023-08-06T01:42:40;2.78;;;2.20;;
65971;SDS011;52726;48.852;9.152;2023-08-06T01:45:06;3.47;;;2.70;;
65971;SDS011;52726;48.852;9.152;2023-08-06T01:47:32;2.97;;;2.53;;
65971;SDS011;52726;48.852;9.152;2023-08-06T01:49:58;4.30;;;2.25;;
65971;SDS011;52726;48.852;9.152;2023-08-06T01:52:23;4.47;;;2.53;;
65971;SDS011;52726;48.852;9.152;2023-08-06T01:54:49;3.50;;;2.17;;
65971;SDS011;52726;48.852;9.152;2023-08-06T01:57:14;2.95;;;2.55;;
65971;SDS011;52726;48.852;9.152;2023-08-06T01:59:39;2.47;;;1.98;;
65971;SDS011;52726;48.852;9.152;2023-08-06T02:02:05;4.38;;;2.30;;
65971;SDS011;52726;48.852;9.152;2023-08-06T02:04:30;2.40;;;1.88;;
65971;SDS011;52726;48.852;9.152;2023-08-06T02:06:55;2.60;;;2.10;;
65971;SDS011;52726;48.852;9.152;2023-08-06T02:09:21;2.10;;;1.90;;
65971;SDS011;52726;48.852;9.152;2023-08-06T02:11:46;2.60;;;1.80;;
65971;SDS011;52726;48.852;9.152;2023-08-06T02:14:11;3.25;;;1.90;;
65971;SDS011;52726;48.852;9.152;2023-08-06T02:16:37;4.63;;;2.13;;
65971;SDS011;52726;48.852;9.152;2023-08-06T02:19:02;2.85;;;2.25;;
65971;SDS011;52726;48.852;9.152;2023-08-06T02:21:27;3.15;;;2.03;;
65971;SDS011;52726;48.852;9.152;2023-08-06T02:23:53;1.95;;;1.70;;
65971;SDS011;52726;48.852;9.152;2023-08-06T02:26:18;2.20;;;1.83;;
65971;SDS011;52726;48.852;9.152;2023-08-06T02:28:43;3.45;;;1.67;;
65971;SDS011;52726;48.852;9.152;2023-08-06T02:31:09;2.97;;;1.83;;
65971;SDS011;52726;48.852;9.152;2023-08-06T02:33:34;2.55;;;1.77;;
65971;SDS011;52726;48.852;9.152;2023-08-06T02:36:01;4.75;;;1.58;;
65971;SDS011;52726;48.852;9.152;2023-08-06T02:38:31;3.55;;;1.85;;
65971;SDS011;52726;48.852;9.152;2023-08-06T02:40:56;1.70;;;1.50;;
65971;SDS011;52726;48.852;9.152;2023-08-06T02:43:22;2.53;;;1.85;;
65971;SDS011;52726;48.852;9.152;2023-08-06T02:45:47;3.80;;;1.65;;
65971;SDS011;52726;48.852;9.152;2023-08-06T02:48:12;4.00;;;1.98;;
65971;SDS011;52726;48.852;9.152;2023-08-06T02:50:41;4.05;;;1.98;;
65971;SDS011;52726;48.852;9.152;2023-08-06T02:53:07;2.70;;;1.90;;
65971;SDS011;52726;48.852;9.152;2023-08-06T02:55:33;3.63;;;2.20;;
65971;SDS011;52726;48.852;9.152;2023-08-06T02:57:59;2.45;;;1.98;;
65971;SDS011;52726;48.852;9.152;2023-08-06T03:00:27;2.30;;;1.88;;
65971;SDS011;52726;48.852;9.152;2023-08-06T03:02:53;5.68;;;2.00;;
65971;SDS011;52726;48.852;9.152;2023-08-06T03:05:19;3.97;;;2.00;;
65971;SDS011;52726;48.852;9.152;2023-08-06T03:07:44;2.38;;;1.50;;
65971;SDS011;52726;48.852;9.152;2023-08-06T03:10:10;3.83;;;2.15;;
65971;SDS011;52726;48.852;9.152;2023-08-06T03:12:35;2.45;;;1.83;;
65971;SDS011;52726;48.852;9.152;2023-08-06T03:15:00;2.78;;;1.67;;
65971;SDS011;52726;48.852;9.152;2023-08-06T03:17:26;2.35;;;1.83;;
65971;SDS011;52726;48.852;9.152;2023-08-06T03:19:51;3.92;;;2.17;;
65971;SDS011;52726;48.852;9.152;2023-08-06T03:22:16;2.58;;;2.00;;
65971;SDS011;52726;48.852;9.152;2023-08-06T03:24:42;4.53;;;2.47;;
65971;SDS011;52726;48.852;9.152;2023-08-06T03:27:07;2.78;;;2.13;;
65971;SDS011;52726;48.852;9.152;2023-08-06T03:29:32;2.90;;;2.10;;
65971;SDS011;52726;48.852;9.152;2023-08-06T03:31:58;2.90;;;2.30;;
65971;SDS011;52726;48.852;9.152;2023-08-06T03:34:23;3.00;;;2.33;;
65971;SDS011;52726;48.852;9.152;2023-08-06T03:36:48;2.80;;;2.17;;
65971;SDS011;52726;48.852;9.152;2023-08-06T03:39:14;2.40;;;1.73;;
65971;SDS011;52726;48.852;9.152;2023-08-06T03:41:39;3.33;;;2.20;;
65971;SDS011;52726;48.852;9.152;2023-08-06T03:44:05;2.95;;;2.20;;
65971;SDS011;52726;48.852;9.152;2023-08-06T03:46:30;2.85;;;2.30;;
65971;SDS011;52726;48.852;9.152;2023-08-06T03:48:58;4.07;;;2.40;;
65971;SDS011;52726;48.852;9.152;2023-08-06T03:51:24;3.75;;;2.20;;
65971;SDS011;52726;48.852;9.152;2023-08-06T03:53:49;2.03;;;1.60;;
65971;SDS011;52726;48.852;9.152;2023-08-06T03:56:15;3.67;;;2.13;;
65971;SDS011;52726;48.852;9.152;2023-08-06T03:58:40;7.18;;;2.10;;
65971;SDS011;52726;48.852;9.152;2023-08-06T04:01:05;4.20;;;2.20;;
65971;SDS011;52726;48.852;9.152;2023-08-06T04:03:31;2.22;;;2.00;;
65971;SDS011;52726;48.852;9.152;2023-08-06T04:05:56;2.60;;;1.95;;
65971;SDS011;52726;48.852;9.152;2023-08-06T04:08:21;5.45;;;1.90;;
65971;SDS011;52726;48.852;9.152;2023-08-06T04:10:53;6.30;;;2.22;;
65971;SDS011;52726;48.852;9.152;2023-08-06T04:13:18;1.83;;;1.73;;
65971;SDS011;52726;48.852;9.152;2023-08-06T04:15:44;5.43;;;1.75;;
65971;SDS011;52726;48.852;9.152;2023-08-06T04:18:09;2.75;;;1.63;;
65971;SDS011;52726;48.852;9.152;2023-08-06T04:20:35;3.22;;;2.22;;
65971;SDS011;52726;48.852;9.152;2023-08-06T04:23:07;2.38;;;1.95;;
65971;SDS011;52726;48.852;9.152;2023-08-06T04:25:33;7.43;;;1.92;;
65971;SDS011;52726;48.852;9.152;2023-08-06T04:27:58;4.15;;;1.60;;
65971;SDS011;52726;48.852;9.152;2023-08-06T04:30:23;2.10;;;1.48;;
65971;SDS011;52726;48.852;9.152;2023-08-06T04:32:49;2.88;;;1.60;;
65971;SDS011;52726;48.852;9.152;2023-08-06T04:35:15;1.98;;;1.77;;
65971;SDS011;52726;48.852;9.152;2023-08-06T04:37:40;4.97;;;2.00;;
65971;SDS011;52726;48.852;9.152;2023-08-06T04:40:06;2.38;;;1.40;;
65971;SDS011;52726;48.852;9.152;2023-08-06T04:42:32;1.77;;;1.55;;
65971;SDS011;52726;48.852;9.152;2023-08-06T04:44:57;2.70;;;1.77;;
65971;SDS011;52726;48.852;9.152;2023-08-06T04:47:23;2.10;;;1.42;;
65971;SDS011;52726;48.852;9.152;2023-08-06T04:49:48;3.55;;;1.45;;
65971;SDS011;52726;48.852;9.152;2023-08-06T04:52:13;1.98;;;1.70;;
65971;SDS011;52726;48.852;9.152;2023-08-06T04:54:38;6.10;;;1.60;;
65971;SDS011;52726;48.852;9.152;2023-08-06T04:57:04;4.10;;;1.75;;
65971;SDS011;52726;48.852;9.152;2023-08-06T04:59:30;3.30;;;1.40;;
65971;SDS011;52726;48.852;9.152;2023-08-06T05:01:55;3.88;;;1.70;;
65971;SDS011;52726;48.852;9.152;2023-08-06T05:04:20;2.83;;;1.85;;
65971;SDS011;52726;48.852;9.152;2023-08-06T05:06:46;2.10;;;1.40;;
65971;SDS011;52726;48.852;9.152;2023-08-06T05:09:11;4.35;;;2.20;;
65971;SDS011;52726;48.852;9.152;2023-08-06T05:11:36;3.22;;;1.60;;
65971;SDS011;52726;48.852;9.152;2023-08-06T05:14:02;2.50;;;1.77;;
65971;SDS011;52726;48.852;9.152;2023-08-06T05:16:27;2.90;;;1.58;;
65971;SDS011;52726;48.852;9.152;2023-08-06T05:18:53;4.68;;;1.80;;
65971;SDS011;52726;48.852;9.152;2023-08-06T05:21:18;2.50;;;1.30;;
65971;SDS011;52726;48.852;9.152;2023-08-06T05:23:44;2.10;;;1.70;;
65971;SDS011;52726;48.852;9.152;2023-08-06T05:26:09;2.97;;;1.55;;
65971;SDS011;52726;48.852;9.152;2023-08-06T05:28:34;2.45;;;1.75;;
65971;SDS011;52726;48.852;9.152;2023-08-06T05:31:04;2.03;;;1.40;;
65971;SDS011;52726;48.852;9.152;2023-08-06T05:33:30;3.75;;;1.90;;
65971;SDS011;52726;48.852;9.152;2023-08-06T05:35:55;2.20;;;1.48;;
65971;SDS011;52726;48.852;9.152;2023-08-06T05:38:20;2.75;;;1.73;;
65971;SDS011;52726;48.852;9.152;2023-08-06T05:40:46;3.45;;;1.67;;
65971;SDS011;52726;48.852;9.152;2023-08-06T05:43:11;3.90;;;2.00;;
65971;SDS011;52726;48.852;9.152;2023-08-06T05:45:36;2.20;;;1.50;;
65971;SDS011;52726;48.852;9.152;2023-08-06T05:48:02;1.60;;;1.40;;
65971;SDS011;52726;48.852;9.152;2023-08-06T05:50:27;2.50;;;1.40;;
65971;SDS011;52726;48.852;9.152;2023-08-06T05:52:52;1.30;;;1.20;;
65971;SDS011;52726;48.852;9.152;2023-08-06T05:55:18;4.00;;;1.50;;
65971;SDS011;52726;48.852;9.152;2023-08-06T05:57:44;3.00;;;1.20;;
65971;SDS011;52726;48.852;9.152;2023-08-06T06:00:10;4.15;;;1.30;;
65971;SDS011;52726;48.852;9.152;2023-08-06T06:02:36;1.27;;;1.00;;
65971;SDS011;52726;48.852;9.152;2023-08-06T06:05:01;3.50;;;1.23;;
65971;SDS011;52726;48.852;9.152;2023-08-06T06:07:26;6.47;;;1.40;;
65971;SDS011;52726;48.852;9.152;2023-08-06T06:09:52;1.30;;;0.90;;
65971;SDS011;52726;48.852;9.152;2023-08-06T06:12:17;5.28;;;1.25;;
65971;SDS011;52726;48.852;9.152;2023-08-06T06:14:43;1.27;;;0.70;;
65971;SDS011;52726;48.852;9.152;2023-08-06T06:17:08;1.58;;;0.73;;
65971;SDS011;52726;48.852;9.152;2023-08-06T06:19:33;0.88;;;0.65;;
65971;SDS011;52726;48.852;9.152;2023-08-06T06:21:59;1.08;;;0.93;;
65971;SDS011;52726;48.852;9.152;2023-08-06T06:24:24;3.72;;;0.82;;
65971;SDS011;52726;48.852;9.152;2023-08-06T06:26:50;1.02;;;0.55;;
65971;SDS011;52726;48.852;9.152;2023-08-06T06:29:15;0.55;;;0.52;;
65971;SDS011;52726;48.852;9.152;2023-08-06T06:31:40;0.85;;;0.73;;
65971;SDS011;52726;48.852;9.152;2023-08-06T06:34:06;5.47;;;0.73;;
65971;SDS011;52726;48.852;9.152;2023-08-06T06:36:31;1.23;;;0.90;;
65971;SDS011;52726;48.852;9.152;2023-08-06T06:38:56;0.50;;;0.50;;
65971;SDS011;52726;48.852;9.152;2023-08-06T06:41:22;0.30;;;0.30;;
65971;SDS011;52726;48.852;9.152;2023-08-06T06:43:47;1.58;;;0.82;;
65971;SDS011;52726;48.852;9.152;2023-08-06T06:46:12;1.35;;;0.77;;
65971;SDS011;52726;48.852;9.152;2023-08-06T06:48:38;0.85;;;0.40;;
65971;SDS011;52726;48.852;9.152;2023-08-06T06:51:03;1.73;;;0.35;;
65971;SDS011;52726;48.852;9.152;2023-08-06T06:53:28;5.00;;;0.70;;
65971;SDS011;52726;48.852;9.152;2023-08-06T06:55:54;0.80;;;0.60;;
65971;SDS011;52726;48.852;9.152;2023-08-06T06:58:29;0.50;;;0.50;;
65971;SDS011;52726;48.852;9.152;2023-08-06T07:00:55;2.03;;;0.47;;
65971;SDS011;52726;48.852;9.152;2023-08-06T07:03:20;0.30;;;0.30;;
65971;SDS011;52726;48.852;9.152;2023-08-06T07:05:46;1.63;;;0.40;;
65971;SDS011;52726;48.852;9.152;2023-08-06T07:08:11;0.65;;;0.20;;
65971;SDS011;52726;48.852;9.152;2023-08-06T07:10:37;3.10;;;0.40;;
65971;SDS011;52726;48.852;9.152;2023-08-06T07:13:02;0.40;;;0.40;;
65971;SDS011;52726;48.852;9.152;2023-08-06T07:15:28;0.30;;;0.30;;
65971;SDS011;52726;48.852;9.152;2023-08-06T07:17:53;0.32;;;0.32;;
65971;SDS011;52726;48.852;9.152;2023-08-06T07:20:18;0.40;;;0.35;;
65971;SDS011;52726;48.852;9.152;2023-08-06T07:22:44;0.32;;;0.32;;
65971;SDS011;52726;48.852;9.152;2023-08-06T07:25:09;0.08;;;0.08;;
65971;SDS011;52726;48.852;9.152;2023-08-06T07:27:35;0.22;;;0.22;;
65971;SDS011;52726;48.852;9.152;2023-08-06T07:30:00;1.25;;;0.13;;
65971;SDS011;52726;48.852;9.152;2023-08-06T07:32:26;0.50;;;0.40;;
65971;SDS011;52726;48.852;9.152;2023-08-06T07:34:52;0.55;;;0.20;;
65971;SDS011;52726;48.852;9.152;2023-08-06T07:37:22;0.57;;;0.32;;
65971;SDS011;52726;48.852;9.152;2023-08-06T07:39:47;0.73;;;0.25;;
65971;SDS011;52726;48.852;9.152;2023-08-06T07:42:13;0.95;;;0.30;;
65971;SDS011;52726;48.852;9.152;2023-08-06T07:44:39;0.13;;;0.13;;
65971;SDS011;52726;48.852;9.152;2023-08-06T07:47:04;1.35;;;0.55;;
65971;SDS011;52726;48.852;9.152;2023-08-06T07:49:30;1.00;;;0.30;;
65971;SDS011;52726;48.852;9.152;2023-08-06T07:51:55;0.32;;;0.32;;
65971;SDS011;52726;48.852;9.152;2023-08-06T07:54:20;0.40;;;0.40;;
65971;SDS011;52726;48.852;9.152;2023-08-06T07:56:46;0.22;;;0.13;;
65971;SDS011;52726;48.852;9.152;2023-08-06T07:59:12;0.30;;;0.30;;
65971;SDS011;52726;48.852;9.152;2023-08-06T08:01:37;1.60;;;0.40;;
65971;SDS011;52726;48.852;9.152;2023-08-06T08:04:02;4.13;;;0.43;;
65971;SDS011;52726;48.852;9.152;2023-08-06T08:06:29;2.65;;;0.47;;
65971;SDS011;52726;48.852;9.152;2023-08-06T08:08:55;0.28;;;0.28;;
65971;SDS011;52726;48.852;9.152;2023-08-06T08:11:20;0.60;;;0.28;;
65971;SDS011;52726;48.852;9.152;2023-08-06T08:13:45;0.30;;;0.30;;
65971;SDS011;52726;48.852;9.152;2023-08-06T08:16:11;0.20;;;0.20;;
65971;SDS011;52726;48.852;9.152;2023-08-06T08:18:36;0.63;;;0.25;;
65971;SDS011;52726;48.852;9.152;2023-08-06T08:21:01;0.35;;;0.35;;
65971;SDS011;52726;48.852;9.152;2023-08-06T08:23:27;0.00;;;0.00;;
65971;SDS011;52726;48.852;9.152;2023-08-06T08:25:52;0.28;;;0.28;;
65971;SDS011;52726;48.852;9.152;2023-08-06T08:28:18;0.15;;;0.15;;
65971;SDS011;52726;48.852;9.152;2023-08-06T08:30:43;0.00;;;0.00;;
65971;SDS011;52726;48.852;9.152;2023-08-06T08:33:08;0.82;;;0.40;;
65971;SDS011;52726;48.852;9.152;2023-08-06T08:35:34;0.10;;;0.10;;
65971;SDS011;52726;48.852;9.152;2023-08-06T08:38:01;0.13;;;0.13;;
65971;SDS011;52726;48.852;9.152;2023-08-06T08:40:32;0.30;;;0.30;;
65971;SDS011;52726;48.852;9.152;2023-08-06T08:43:00;0.10;;;0.10;;
65971;SDS011;52726;48.852;9.152;2023-08-06T08:45:28;0.13;;;0.13;;
65971;SDS011;52726;48.852;9.152;2023-08-06T08:47:54;0.10;;;0.10;;
65971;SDS011;52726;48.852;9.152;2023-08-06T08:50:20;0.30;;;0.13;;
65971;SDS011;52726;48.852;9.152;2023-08-06T08:52:46;0.22;;;0.20;;
65971;SDS011;52726;48.852;9.152;2023-08-06T08:55:14;0.00;;;0.00;;
65971;SDS011;52726;48.852;9.152;2023-08-06T08:57:40;0.10;;;0.10;;
65971;SDS011;52726;48.852;9.152;2023-08-06T09:00:06;0.05;;;0.05;;
65971;SDS011;52726;48.852;9.152;2023-08-06T09:02:32;0.80;;;0.10;;
65971;SDS011;52726;48.852;9.152;2023-08-06T09:04:59;0.30;;;0.30;;
65971;SDS011;52726;48.852;9.152;2023-08-06T09:07:27;0.17;;;0.15;;
65971;SDS011;52726;48.852;9.152;2023-08-06T09:10:03;0.10;;;0.10;;
65971;SDS011;52726;48.852;9.152;2023-08-06T09:12:31;0.10;;;0.10;;
65971;SDS011;52726;48.852;9.152;2023-08-06T09:14:56;0.08;;;0.00;;
65971;SDS011;52726;48.852;9.152;2023-08-06T09:17:22;0.10;;;0.10;;
65971;SDS011;52726;48.852;9.152;2023-08-06T09:19:47;0.63;;;0.15;;
65971;SDS011;52726;48.852;9.152;2023-08-06T09:22:13;0.13;;;0.13;;
65971;SDS011;52726;48.852;9.152;2023-08-06T09:24:39;0.05;;;0.05;;
65971;SDS011;52726;48.852;9.152;2023-08-06T09:27:10;0.10;;;0.10;;
65971;SDS011;52726;48.852;9.152;2023-08-06T09:29:39;0.10;;;0.10;;
65971;SDS011;52726;48.852;9.152;2023-08-06T09:32:08;0.10;;;0.10;;
65971;SDS011;52726;48.852;9.152;2023-08-06T09:34:34;0.10;;;0.10;;
65971;SDS011;52726;48.852;9.152;2023-08-06T09:36:59;0.05;;;0.05;;
65971;SDS011;52726;48.852;9.152;2023-08-06T09:39:28;0.05;;;0.05;;
65971;SDS011;52726;48.852;9.152;2023-08-06T09:42:01;0.10;;;0.10;;
65971;SDS011;52726;48.852;9.152;2023-08-06T09:44:27;0.20;;;0.20;;
65971;SDS011;52726;48.852;9.152;2023-08-06T09:46:56;2.28;;;0.20;;
65971;SDS011;52726;48.852;9.152;2023-08-06T09:49:26;0.22;;;0.10;;
65971;SDS011;52726;48.852;9.152;2023-08-06T09:51:53;0.07;;;0.07;;
65971;SDS011;52726;48.852;9.152;2023-08-06T09:54:22;0.17;;;0.17;;
65971;SDS011;52726;48.852;9.152;2023-08-06T09:56:48;0.35;;;0.00;;
65971;SDS011;52726;48.852;9.152;2023-08-06T09:59:14;0.10;;;0.10;;
65971;SDS011;52726;48.852;9.152;2023-08-06T10:01:41;0.38;;;0.20;;
65971;SDS011;52726;48.852;9.152;2023-08-06T10:04:06;0.10;;;0.10;;
65971;SDS011;52726;48.852;9.152;2023-08-06T10:06:40;0.73;;;0.10;;
65971;SDS011;52726;48.852;9.152;2023-08-06T10:09:06;0.00;;;0.00;;
65971;SDS011;52726;48.852;9.152;2023-08-06T10:11:32;0.15;;;0.15;;
65971;SDS011;52726;48.852;9.152;2023-08-06T10:14:00;0.10;;;0.10;;
65971;SDS011;52726;48.852;9.152;2023-08-06T10:18:56;0.10;;;0.10;;
65971;SDS011;52726;48.852;9.152;2023-08-06T10:21:23;0.00;;;0.00;;
65971;SDS011;52726;48.852;9.152;2023-08-06T10:23:53;0.10;;;0.10;;
65971;SDS011;52726;48.852;9.152;2023-08-06T10:26:19;0.00;;;0.00;;
65971;SDS011;52726;48.852;9.152;2023-08-06T10:28:44;0.10;;;0.10;;
65971;SDS011;52726;48.852;9.152;2023-08-06T10:31:10;0.10;;;0.10;;
65971;SDS011;52726;48.852;9.152;2023-08-06T10:33:42;0.10;;;0.10;;
65971;SDS011;52726;48.852;9.152;2023-08-06T10:36:09;0.00;;;0.00;;
65971;SDS011;52726;48.852;9.152;2023-08-06T10:38:35;0.10;;;0.10;;
65971;SDS011;52726;48.852;9.152;2023-08-06T10:41:08;0.10;;;0.10;;
65971;SDS011;52726;48.852;9.152;2023-08-06T10:43:40;0.10;;;0.10;;
65971;SDS011;52726;48.852;9.152;2023-08-06T10:46:23;0.17;;;0.17;;
65971;SDS011;52726;48.852;9.152;2023-08-06T10:48:51;0.20;;;0.20;;
65971;SDS011;52726;48.852;9.152;2023-08-06T10:51:17;0.55;;;0.10;;
65971;SDS011;52726;48.852;9.152;2023-08-06T10:53:43;1.65;;;0.25;;
65971;SDS011;52726;48.852;9.152;2023-08-06T10:56:13;0.00;;;0.00;;
65971;SDS011;52726;48.852;9.152;2023-08-06T10:58:43;0.20;;;0.20;;
65971;SDS011;52726;48.852;9.152;2023-08-06T11:01:12;0.10;;;0.10;;
65971;SDS011;52726;48.852;9.152;2023-08-06T11:03:38;0.35;;;0.35;;
65971;SDS011;52726;48.852;9.152;2023-08-06T11:06:06;0.40;;;0.40;;
65971;SDS011;52726;48.852;9.152;2023-08-06T11:08:36;0.35;;;0.35;;
65971;SDS011;52726;48.852;9.152;2023-08-06T11:11:09;0.47;;;0.47;;
65971;SDS011;52726;48.852;9.152;2023-08-06T11:13:42;1.02;;;0.40;;
65971;SDS011;52726;48.852;9.152;2023-08-06T11:16:12;0.40;;;0.40;;
65971;SDS011;52726;48.852;9.152;2023-08-06T11:18:39;0.40;;;0.40;;
65971;SDS011;52726;48.852;9.152;2023-08-06T11:21:05;0.75;;;0.55;;
65971;SDS011;52726;48.852;9.152;2023-08-06T11:23:31;0.75;;;0.60;;
65971;SDS011;52726;48.852;9.152;2023-08-06T11:25:56;1.05;;;0.50;;
65971;SDS011;52726;48.852;9.152;2023-08-06T11:28:22;0.57;;;0.57;;
65971;SDS011;52726;48.852;9.152;2023-08-06T11:30:48;0.80;;;0.80;;
65971;SDS011;52726;48.852;9.152;2023-08-06T11:33:14;0.60;;;0.57;;
65971;SDS011;52726;48.852;9.152;2023-08-06T11:35:50;0.50;;;0.50;;
65971;SDS011;52726;48.852;9.152;2023-08-06T11:38:16;2.05;;;0.82;;
65971;SDS011;52726;48.852;9.152;2023-08-06T11:40:43;0.75;;;0.75;;
65971;SDS011;52726;48.852;9.152;2023-08-06T11:43:10;0.60;;;0.60;;
65971;SDS011;52726;48.852;9.152;2023-08-06T11:45:36;0.95;;;0.70;;
65971;SDS011;52726;48.852;9.152;2023-08-06T11:48:01;0.60;;;0.60;;
65971;SDS011;52726;48.852;9.152;2023-08-06T11:50:28;0.32;;;0.32;;
65971;SDS011;52726;48.852;9.152;2023-08-06T11:52:57;0.70;;;0.70;;
65971;SDS011;52726;48.852;9.152;2023-08-06T11:55:24;1.70;;;0.90;;
65971;SDS011;52726;48.852;9.152;2023-08-06T11:57:50;0.80;;;0.68;;
65971;SDS011;52726;48.852;9.152;2023-08-06T12:00:15;1.85;;;1.15;;
65971;SDS011;52726;48.852;9.152;2023-08-06T12:02:45;1.77;;;0.85;;
65971;SDS011;52726;48.852;9.152;2023-08-06T12:07:41;1.63;;;1.10;;
65971;SDS011;52726;48.852;9.152;2023-08-06T12:10:07;2.60;;;1.10;;
65971;SDS011;52726;48.852;9.152;2023-08-06T12:12:33;1.90;;;1.13;;
65971;SDS011;52726;48.852;9.152;2023-08-06T12:14:59;1.30;;;1.20;;
65971;SDS011;52726;48.852;9.152;2023-08-06T12:17:25;3.53;;;1.27;;
65971;SDS011;52726;48.852;9.152;2023-08-06T12:19:51;1.38;;;1.20;;
65971;SDS011;52726;48.852;9.152;2023-08-06T12:22:16;1.17;;;0.95;;
65971;SDS011;52726;48.852;9.152;2023-08-06T12:24:42;3.05;;;1.30;;
65971;SDS011;52726;48.852;9.152;2023-08-06T12:27:09;1.95;;;1.10;;
65971;SDS011;52726;48.852;9.152;2023-08-06T12:29:35;1.17;;;1.08;;
65971;SDS011;52726;48.852;9.152;2023-08-06T12:32:03;2.88;;;1.48;;
65971;SDS011;52726;48.852;9.152;2023-08-06T12:34:28;3.60;;;1.67;;
65971;SDS011;52726;48.852;9.152;2023-08-06T12:36:54;2.22;;;1.10;;
65971;SDS011;52726;48.852;9.152;2023-08-06T12:39:19;1.08;;;1.05;;
65971;SDS011;52726;48.852;9.152;2023-08-06T12:41:44;3.70;;;1.20;;
65971;SDS011;52726;48.852;9.152;2023-08-06T12:44:11;2.75;;;1.23;;
65971;SDS011;52726;48.852;9.152;2023-08-06T12:46:37;1.13;;;1.02;;
65971;SDS011;52726;48.852;9.152;2023-08-06T12:49:02;1.23;;;1.13;;
65971;SDS011;52726;48.852;9.152;2023-08-06T12:51:28;1.77;;;1.10;;
65971;SDS011;52726;48.852;9.152;2023-08-06T12:53:53;1.33;;;1.02;;
65971;SDS011;52726;48.852;9.152;2023-08-06T12:56:18;2.03;;;0.80;;
65971;SDS011;52726;48.852;9.152;2023-08-06T12:58:44;0.98;;;0.77;;
65971;SDS011;52726;48.852;9.152;2023-08-06T13:01:09;0.90;;;0.90;;
65971;SDS011;52726;48.852;9.152;2023-08-06T13:03:34;3.78;;;1.27;;
65971;SDS011;52726;48.852;9.152;2023-08-06T13:06:00;1.20;;;0.90;;
65971;SDS011;52726;48.852;9.152;2023-08-06T13:08:25;0.73;;;0.70;;
65971;SDS011;52726;48.852;9.152;2023-08-06T13:10:51;1.63;;;0.68;;
65971;SDS011;52726;48.852;9.152;2023-08-06T13:13:16;1.73;;;1.10;;
65971;SDS011;52726;48.852;9.152;2023-08-06T13:15:41;1.77;;;0.90;;
65971;SDS011;52726;48.852;9.152;2023-08-06T13:18:07;1.15;;;1.00;;
65971;SDS011;52726;48.852;9.152;2023-08-06T13:20:32;2.88;;;1.02;;
65971;SDS011;52726;48.852;9.152;2023-08-06T13:22:58;2.30;;;0.90;;
65971;SDS011;52726;48.852;9.152;2023-08-06T13:25:26;1.08;;;0.80;;
65971;SDS011;52726;48.852;9.152;2023-08-06T13:27:52;0.70;;;0.68;;
65971;SDS011;52726;48.852;9.152;2023-08-06T13:30:17;0.60;;;0.60;;
65971;SDS011;52726;48.852;9.152;2023-08-06T13:32:43;1.10;;;0.52;;
65971;SDS011;52726;48.852;9.152;2023-08-06T13:35:09;0.77;;;0.50;;
65971;SDS011;52726;48.852;9.152;2023-08-06T13:37:35;2.10;;;0.73;;
65971;SDS011;52726;48.852;9.152;2023-08-06T13:40:00;0.43;;;0.40;;
65971;SDS011;52726;48.852;9.152;2023-08-06T13:42:25;0.50;;;0.50;;
65971;SDS011;52726;48.852;9.152;2023-08-06T13:44:50;3.17;;;0.50;;
65971;SDS011;52726;48.852;9.152;2023-08-06T13:47:16;0.43;;;0.30;;
65971;SDS011;52726;48.852;9.152;2023-08-06T13:49:41;0.40;;;0.40;;
65971;SDS011;52726;48.852;9.152;2023-08-06T13:52:06;0.50;;;0.50;;
65971;SDS011;52726;48.852;9.152;2023-08-06T13:54:32;0.20;;;0.20;;
65971;SDS011;52726;48.852;9.152;2023-08-06T13:56:57;0.50;;;0.50;;
65971;SDS011;52726;48.852;9.152;2023-08-06T13:59:22;0.75;;;0.52;;
65971;SDS011;52726;48.852;9.152;2023-08-06T14:01:49;0.50;;;0.45;;
65971;SDS011;52726;48.852;9.152;2023-08-06T14:04:15;0.38;;;0.35;;
65971;SDS011;52726;48.852;9.152;2023-08-06T14:06:40;0.60;;;0.50;;
65971;SDS011;52726;48.852;9.152;2023-08-06T14:09:06;1.05;;;0.47;;
65971;SDS011;52726;48.852;9.152;2023-08-06T14:11:31;0.63;;;0.45;;
65971;SDS011;52726;48.852;9.152;2023-08-06T14:13:57;0.68;;;0.68;;
65971;SDS011;52726;48.852;9.152;2023-08-06T14:16:22;0.88;;;0.77;;
65971;SDS011;52726;48.852;9.152;2023-08-06T14:18:47;0.85;;;0.57;;
65971;SDS011;52726;48.852;9.152;2023-08-06T14:21:13;1.10;;;0.60;;
65971;SDS011;52726;48.852;9.152;2023-08-06T14:23:39;1.45;;;0.63;;
65971;SDS011;52726;48.852;9.152;2023-08-06T14:26:06;0.50;;;0.40;;
65971;SDS011;52726;48.852;9.152;2023-08-06T14:28:32;0.70;;;0.70;;
65971;SDS011;52726;48.852;9.152;2023-08-06T14:30:57;0.70;;;0.60;;
65971;SDS011;52726;48.852;9.152;2023-08-06T14:33:22;2.15;;;0.80;;
65971;SDS011;52726;48.852;9.152;2023-08-06T14:35:48;0.65;;;0.63;;
65971;SDS011;52726;48.852;9.152;2023-08-06T14:38:13;0.85;;;0.40;;
65971;SDS011;52726;48.852;9.152;2023-08-06T14:40:38;0.73;;;0.63;;
65971;SDS011;52726;48.852;9.152;2023-08-06T14:43:05;3.92;;;0.80;;
65971;SDS011;52726;48.852;9.152;2023-08-06T14:45:31;1.55;;;0.73;;
65971;SDS011;52726;48.852;9.152;2023-08-06T14:47:56;0.40;;;0.40;;
65971;SDS011;52726;48.852;9.152;2023-08-06T14:50:22;0.98;;;0.85;;